Time;durP1;ratioP1;P1;durP2;ratioP2;P2;SDS_P1;SDS_P2;PMS_P1;PMS_P2;Temp;Humidity;BMP_temperature;BMP_pressure;BME280_temperature;BME280_humidity;BME280_pressure;Samples;Min_cycle;Max_cycle;Signal;HPM_P1;HPM_P2
2021/04/09 00:00:36;;;;;;;17.95;8.70;;;;;;;0.76;67.14;99992.90;117697;1206;23470;-59
2021/04/09 00:03:04;;;;;;;17.40;9.30;;;;;;;0.68;66.86;99993.83;117721;1206;24057;-59
2021/04/09 00:05:32;;;;;;;16.75;9.30;;;;;;;0.63;67.63;99998.06;117663;1206;24725;-60
2021/04/09 00:08:01;;;;;;;16.20;8.70;;;;;;;0.57;67.85;99996.13;117693;1206;23423;-61
2021/04/09 00:10:29;;;;;;;16.45;9.60;;;;;;;0.51;68.13;99994.16;117692;1210;22872;-61
2021/04/09 00:12:56;;;;;;;20.23;9.67;;;;;;;0.47;68.35;100000.89;117716;1206;22900;-61
2021/04/09 00:15:24;;;;;;;18.00;10.00;;;;;;;0.44;68.21;100003.92;117679;1206;22995;-62
2021/04/09 00:18:05;;;;;;;20.37;9.37;;;;;;;0.42;67.94;100005.98;117711;1211;22943;-61
2021/04/09 00:20:32;;;;;;;16.60;9.27;;;;;;;0.42;68.49;100006.81;117624;1206;22915;-61
2021/04/09 00:23:00;;;;;;;16.10;9.95;;;;;;;0.43;69.14;100008.48;117761;1206;22835;-61
2021/04/09 00:25:28;;;;;;;14.40;7.63;;;;;;;0.45;69.22;100005.59;117777;1206;26813;-62
2021/04/09 00:27:56;;;;;;;16.97;8.57;;;;;;;0.45;68.69;100010.95;117771;1206;22873;-61
2021/04/09 00:30:27;;;;;;;15.10;8.40;;;;;;;0.42;68.94;100008.66;117709;1206;22886;-61
2021/04/09 00:32:55;;;;;;;15.30;9.40;;;;;;;0.41;69.25;100012.34;117719;1206;22845;-61
2021/04/09 00:35:23;;;;;;;16.43;8.23;;;;;;;0.41;69.32;100015.03;117727;1206;23028;-61
2021/04/09 00:37:51;;;;;;;14.80;8.87;;;;;;;0.41;69.09;100026.59;117714;1206;22837;-61
2021/04/09 00:40:20;;;;;;;15.85;8.95;;;;;;;0.39;69.22;100023.25;117719;1212;22906;-59
2021/04/09 00:42:48;;;;;;;16.40;8.70;;;;;;;0.40;69.31;100035.64;117709;1206;23267;-59
2021/04/09 00:45:17;;;;;;;21.10;10.10;;;;;;;0.39;69.34;100033.13;117714;1206;22973;-59
2021/04/09 00:47:44;;;;;;;16.77;8.47;;;;;;;0.29;69.56;100019.95;117626;1206;23799;-59
2021/04/09 00:50:13;;;;;;;17.55;9.25;;;;;;;0.38;68.77;100040.34;117739;1211;22980;-59
2021/04/09 00:52:43;;;;;;;19.55;10.30;;;;;;;0.39;69.50;100038.50;117729;1206;23351;-59
2021/04/09 00:55:11;;;;;;;21.30;10.10;;;;;;;0.37;68.99;100037.84;117672;1206;23649;-59
2021/04/09 00:57:39;;;;;;;22.07;10.67;;;;;;;0.37;69.58;100038.67;117727;1206;23331;-59
2021/04/09 01:00:09;;;;;;;19.50;9.80;;;;;;;0.38;69.60;100042.19;117477;1206;22902;-59
2021/04/09 01:02:37;;;;;;;18.30;9.55;;;;;;;0.38;69.73;100037.66;117712;1206;22859;-59
2021/04/09 01:05:09;;;;;;;16.20;8.57;;;;;;;0.39;69.62;100043.86;117793;1206;23766;-59
2021/04/09 01:07:38;;;;;;;15.40;8.50;;;;;;;0.38;69.59;100044.87;117716;1206;22909;-59
2021/04/09 01:10:07;;;;;;;15.30;8.20;;;;;;;0.38;69.93;100047.55;117731;1211;23130;-59
2021/04/09 01:12:35;;;;;;;14.27;8.20;;;;;;;0.35;69.38;100043.38;117659;1206;23001;-59
2021/04/09 01:15:07;;;;;;;16.30;8.30;;;;;;;0.29;69.54;100044.91;117653;1206;22849;-59
2021/04/09 01:17:51;;;;;;;15.33;8.60;;;;;;;0.26;69.57;100052.50;117676;1206;22866;-59
2021/04/09 01:20:39;;;;;;;16.60;8.50;;;;;;;0.24;69.72;100054.52;117723;1210;22864;-59
2021/04/09 01:23:30;;;;;;;15.97;8.43;;;;;;;0.20;69.33;100054.03;117384;1206;23315;-59
2021/04/09 01:26:24;;;;;;;15.43;8.00;;;;;;;0.18;70.02;100057.89;117710;1206;22927;-59
2021/04/09 01:29:30;;;;;;;12.33;8.33;;;;;;;0.14;69.27;100057.44;117646;1206;23074;-60
2021/04/09 01:31:57;;;;;;;13.97;7.77;;;;;;;0.12;69.32;100061.30;117737;1206;22879;-59
2021/04/09 01:34:25;;;;;;;13.27;8.20;;;;;;;0.08;69.98;100057.30;117717;1211;22846;-59
2021/04/09 01:36:55;;;;;;;13.40;8.15;;;;;;;0.08;69.75;100068.86;114639;1212;23138;-59
2021/04/09 01:39:54;;;;;;;15.65;9.75;;;;;;;0.06;69.73;100070.03;117676;1206;22825;-59
2021/04/09 01:42:22;;;;;;;14.77;8.50;;;;;;;0.05;69.99;100063.84;117218;1208;24159;-59
2021/04/09 01:44:53;;;;;;;15.75;8.75;;;;;;;0.04;70.75;100067.53;117160;1212;23926;-59
2021/04/09 01:47:23;;;;;;;12.77;9.07;;;;;;;0.03;69.86;100073.90;117166;1209;24168;-59
2021/04/09 01:49:55;;;;;;;17.75;8.95;;;;;;;0.02;70.67;100072.22;117195;1209;23700;-59
2021/04/09 01:52:25;;;;;;;16.23;9.20;;;;;;;0.01;70.35;100078.59;117227;1209;22938;-59
2021/04/09 01:54:53;;;;;;;13.70;8.75;;;;;;;-0.02;70.41;100087.00;117198;1209;23041;-59
2021/04/09 01:57:21;;;;;;;13.50;8.60;;;;;;;-0.05;70.48;100093.55;117188;1209;22974;-59
2021/04/09 01:59:49;;;;;;;15.30;8.45;;;;;;;-0.07;70.18;100097.40;117181;1208;24725;-59
2021/04/09 02:02:18;;;;;;;17.33;8.93;;;;;;;-0.12;70.09;100100.59;117213;1212;22919;-59
2021/04/09 02:04:46;;;;;;;15.40;9.30;;;;;;;-0.14;70.31;100101.77;117140;1212;22858;-59
2021/04/09 02:07:17;;;;;;;18.33;8.90;;;;;;;-0.16;70.18;100103.81;117250;1209;23671;-59
2021/04/09 02:09:48;;;;;;;16.77;8.93;;;;;;;-0.21;70.10;100109.69;117198;1209;22843;-61
2021/04/09 02:12:16;;;;;;;19.23;8.97;;;;;;;-0.21;70.42;100116.88;117260;1212;23079;-61
2021/04/09 02:14:44;;;;;;;15.73;9.70;;;;;;;-0.22;70.27;100115.21;117179;1212;23709;-60
2021/04/09 02:17:12;;;;;;;15.30;9.20;;;;;;;-0.24;70.44;100111.88;117231;1208;22958;-60
2021/04/09 02:19:43;;;;;;;16.77;8.83;;;;;;;-0.26;70.40;100117.39;117513;1206;22894;-60
2021/04/09 02:22:10;;;;;;;16.45;8.50;;;;;;;-0.28;70.81;100110.54;117728;1206;22964;-60
2021/04/09 02:24:38;;;;;;;14.50;9.55;;;;;;;-0.29;70.48;100108.90;117729;1211;22822;-61
2021/04/09 02:27:07;;;;;;;15.17;9.23;;;;;;;-0.32;70.83;100111.91;117782;1206;23647;-60
2021/04/09 02:29:34;;;;;;;17.40;9.30;;;;;;;-0.30;71.00;100112.58;117721;1206;22875;-61
2021/04/09 02:32:02;;;;;;;15.43;7.50;;;;;;;-0.31;70.50;100119.78;117636;1206;22996;-61
2021/04/09 02:34:30;;;;;;;18.85;8.65;;;;;;;-0.32;70.86;100117.27;117704;1209;23920;-60
2021/04/09 02:36:57;;;;;;;13.70;9.35;;;;;;;-0.33;70.78;100119.11;114597;1212;23353;-60
2021/04/09 02:39:26;;;;;;;15.60;9.47;;;;;;;-0.34;70.79;100127.31;117725;1206;23541;-60
2021/04/09 02:41:58;;;;;;;18.27;9.57;;;;;;;-0.36;71.25;100132.84;117725;1206;23013;-61
2021/04/09 02:44:26;;;;;;;15.13;8.90;;;;;;;-0.33;71.58;100131.66;117723;1209;22810;-60
2021/04/09 02:47:17;;;;;;;13.60;8.47;;;;;;;-0.36;70.84;100130.16;117716;1206;23775;-60
2021/04/09 02:50:02;;;;;;;14.10;7.97;;;;;;;-0.39;70.86;100135.85;117701;1206;22994;-59
2021/04/09 02:52:34;;;;;;;11.30;8.17;;;;;;;-0.42;70.90;100136.19;117732;1212;23001;-59
2021/04/09 02:55:08;;;;;;;15.47;9.00;;;;;;;-0.44;71.16;100144.42;117614;1206;23911;-60
2021/04/09 02:57:35;;;;;;;15.73;8.63;;;;;;;-0.45;71.07;100148.10;117624;1206;22933;-59
2021/04/09 03:00:05;;;;;;;14.20;8.85;;;;;;;-0.48;70.80;100153.79;117615;1209;23582;-59
2021/04/09 03:02:32;;;;;;;14.47;8.63;;;;;;;-0.51;70.98;100154.13;117716;1210;22858;-59
2021/04/09 03:05:01;;;;;;;15.30;8.90;;;;;;;-0.52;70.89;100156.97;117771;1206;24048;-59
2021/04/09 03:07:29;;;;;;;13.93;9.17;;;;;;;-0.55;70.65;100168.02;117728;1206;23622;-59
2021/04/09 03:09:58;;;;;;;16.15;9.85;;;;;;;-0.54;71.51;100177.72;117702;1206;22870;-59
2021/04/09 03:12:28;;;;;;;17.37;10.60;;;;;;;-0.62;71.73;100157.17;117678;1206;24058;-59
2021/04/09 03:14:55;;;;;;;17.40;10.37;;;;;;;-0.50;71.68;100171.86;117746;1205;22944;-59
2021/04/09 03:17:31;;;;;;;17.17;9.67;;;;;;;-0.50;71.66;100176.38;117543;1206;23038;-59
2021/04/09 03:19:59;;;;;;;14.70;9.85;;;;;;;-0.51;71.97;100174.70;117727;1206;23882;-59
2021/04/09 03:22:27;;;;;;;17.03;9.03;;;;;;;-0.50;71.84;100184.41;117705;1211;23616;-59
2021/04/09 03:24:54;;;;;;;18.03;9.27;;;;;;;-0.51;72.17;100191.59;117737;1209;23083;-59
2021/04/09 03:27:22;;;;;;;17.10;10.37;;;;;;;-0.50;72.32;100197.78;117720;1206;22954;-59
2021/04/09 03:29:50;;;;;;;15.37;9.63;;;;;;;-0.49;71.94;100202.97;117693;1206;22982;-60
2021/04/09 03:32:18;;;;;;;18.13;9.93;;;;;;;-0.46;72.21;100197.28;117677;1206;22922;-59
2021/04/09 03:34:46;;;;;;;16.90;11.60;;;;;;;-0.45;72.45;100203.48;117750;1211;22827;-59
2021/04/09 03:37:13;;;;;;;19.80;10.35;;;;;;;-0.42;73.08;100209.30;117549;1206;24057;-60
2021/04/09 03:39:41;;;;;;;22.70;11.23;;;;;;;-0.37;72.93;100217.67;117711;1206;22795;-60
2021/04/09 03:42:09;;;;;;;22.97;12.27;;;;;;;-0.30;73.11;100217.84;117763;1206;22925;-60
2021/04/09 03:44:37;;;;;;;27.63;13.80;;;;;;;-0.21;73.89;100223.99;117662;1206;22987;-59
2021/04/09 03:47:05;;;;;;;29.07;14.63;;;;;;;-0.14;74.20;100222.28;117814;1210;22887;-64
2021/04/09 03:49:34;;;;;;;26.07;13.87;;;;;;;-0.04;73.85;100221.10;117676;1206;22959;-64
2021/04/09 03:52:02;;;;;;;25.07;14.43;;;;;;;0.07;74.43;100224.41;117761;1206;22933;-64
2021/04/09 03:54:30;;;;;;;27.95;13.90;;;;;;;0.17;74.38;100225.03;117697;1206;24071;-64
2021/04/09 03:56:57;;;;;;;24.20;13.37;;;;;;;0.29;74.37;100223.63;117762;1211;23003;-65
2021/04/09 03:59:25;;;;;;;27.07;15.53;;;;;;;0.44;74.75;100231.77;117688;1206;23427;-65
2021/04/09 04:01:52;;;;;;;32.73;16.20;;;;;;;0.59;74.80;100236.21;117766;1206;23642;-64
2021/04/09 04:04:20;;;;;;;32.47;16.50;;;;;;;0.76;74.48;100247.68;117690;1210;23000;-65
2021/04/09 04:06:47;;;;;;;31.10;16.87;;;;;;;0.93;74.45;100251.10;117776;1211;22838;-65
2021/04/09 04:09:15;;;;;;;28.37;16.33;;;;;;;1.12;73.87;100247.95;117722;1206;23274;-64
2021/04/09 04:11:43;;;;;;;27.37;17.20;;;;;;;1.32;73.45;100245.59;117676;1206;23025;-64
2021/04/09 04:14:11;;;;;;;26.90;16.15;;;;;;;1.51;73.62;100245.11;117679;1210;23005;-64
2021/04/09 04:16:38;;;;;;;24.63;16.10;;;;;;;1.68;72.93;100257.38;117727;1206;22871;-59
2021/04/09 04:19:06;;;;;;;26.70;17.45;;;;;;;1.80;72.86;100263.13;117720;1206;24360;-59
2021/04/09 04:21:33;;;;;;;45.00;24.40;;;;;;;1.87;72.62;100261.39;117698;1206;22800;-59
2021/04/09 04:24:01;;;;;;;42.50;23.10;;;;;;;1.91;72.29;100267.21;117696;1206;22905;-59
2021/04/09 04:26:28;;;;;;;39.10;23.35;;;;;;;1.94;72.13;100262.31;117671;1211;23093;-59
2021/04/09 04:28:56;;;;;;;48.55;27.20;;;;;;;1.98;71.69;100258.24;117682;1208;23472;-59
2021/04/09 04:31:23;;;;;;;40.07;21.83;;;;;;;2.03;72.47;100269.25;117741;1210;22909;-59
2021/04/09 04:33:52;;;;;;;37.05;21.70;;;;;;;2.12;71.85;100272.70;117712;1206;22938;-59
2021/04/09 04:36:20;;;;;;;38.10;22.45;;;;;;;2.23;72.38;100272.23;117682;1206;22823;-59
2021/04/09 04:38:48;;;;;;;39.60;21.50;;;;;;;2.31;72.17;100276.70;117740;1206;23016;-59
2021/04/09 04:41:17;;;;;;;37.75;19.95;;;;;;;2.38;72.24;100278.45;117718;1206;22887;-59
2021/04/09 04:43:45;;;;;;;39.45;19.65;;;;;;;2.45;71.95;100283.92;117763;1206;22815;-59
2021/04/09 04:46:13;;;;;;;37.77;20.43;;;;;;;2.41;71.63;100275.39;117649;1209;23621;-59
2021/04/09 04:48:40;;;;;;;34.60;18.75;;;;;;;2.51;72.07;100285.84;117744;1206;23674;-58
2021/04/09 04:51:08;;;;;;;38.00;20.83;;;;;;;2.54;71.93;100290.02;117653;1206;22909;-58
2021/04/09 04:53:35;;;;;;;48.57;22.93;;;;;;;2.58;71.91;100294.86;117731;1206;22856;-59
2021/04/09 04:56:03;;;;;;;34.10;17.75;;;;;;;2.66;71.65;100297.42;117764;1206;22920;-58
2021/04/09 04:58:31;;;;;;;26.03;15.23;;;;;;;2.74;71.17;100296.50;117765;1212;22880;-58
2021/04/09 05:01:01;;;;;;;28.17;14.87;;;;;;;2.76;70.94;100297.95;117678;1206;22833;-59
2021/04/09 05:03:29;;;;;;;23.45;14.95;;;;;;;2.77;70.82;100299.63;117699;1206;22874;-58
2021/04/09 05:05:57;;;;;;;26.95;14.25;;;;;;;2.79;71.36;100304.83;117774;1206;22954;-58
2021/04/09 05:08:24;;;;;;;21.33;13.67;;;;;;;2.80;71.82;100312.71;117712;1209;22971;-59
2021/04/09 05:10:52;;;;;;;23.75;15.30;;;;;;;2.86;71.77;100313.83;117738;1206;24063;-57
2021/04/09 05:13:19;;;;;;;23.40;14.77;;;;;;;2.91;71.72;100310.55;117611;1206;22963;-58
2021/04/09 05:15:47;;;;;;;26.83;15.87;;;;;;;2.95;71.38;100320.76;117716;1206;22872;-58
2021/04/09 05:18:14;;;;;;;25.13;15.10;;;;;;;2.98;71.05;100317.69;117768;1206;23000;-58
2021/04/09 05:20:42;;;;;;;26.15;15.90;;;;;;;3.03;70.59;100317.14;117743;1206;22893;-59
2021/04/09 05:23:09;;;;;;;23.40;15.93;;;;;;;3.07;71.15;100327.31;117721;1206;22925;-59
2021/04/09 05:25:37;;;;;;;26.33;16.40;;;;;;;3.11;70.70;100327.78;117749;1206;23848;-58
2021/04/09 05:28:05;;;;;;;25.25;14.90;;;;;;;3.11;70.63;100325.92;117662;1206;22948;-58
2021/04/09 05:30:33;;;;;;;25.17;14.70;;;;;;;3.11;70.44;100327.78;117768;1206;22800;-58
2021/04/09 05:33:00;;;;;;;28.20;16.10;;;;;;;3.12;70.25;100332.14;117689;1206;22829;-58
2021/04/09 05:35:28;;;;;;;30.97;15.87;;;;;;;3.13;70.25;100329.26;117785;1205;22843;-58
2021/04/09 05:37:55;;;;;;;27.80;14.90;;;;;;;3.12;70.40;100337.52;117736;1211;22874;-58
2021/04/09 05:40:24;;;;;;;21.80;14.47;;;;;;;3.11;70.04;100330.47;117734;1209;22983;-59
2021/04/09 05:42:57;;;;;;;53.23;30.37;;;;;;;3.10;70.34;100344.95;117719;1206;23549;-58
2021/04/09 05:45:25;;;;;;;32.50;21.70;;;;;;;3.10;69.88;100345.78;117739;1206;22922;-59
2021/04/09 05:47:53;;;;;;;26.10;16.17;;;;;;;3.09;69.78;100351.36;117687;1206;23805;-58
2021/04/09 05:50:21;;;;;;;23.10;16.00;;;;;;;3.07;70.57;100339.94;117745;1206;22938;-58
2021/04/09 05:52:49;;;;;;;27.70;14.70;;;;;;;3.09;70.23;100351.36;117666;1212;22987;-58
2021/04/09 05:55:16;;;;;;;31.80;17.87;;;;;;;3.12;69.63;100357.20;117711;1206;22909;-59
2021/04/09 05:57:44;;;;;;;25.20;18.17;;;;;;;3.13;70.15;100356.19;117767;1206;22846;-58
2021/04/09 06:00:12;;;;;;;28.83;18.67;;;;;;;3.16;70.23;100363.05;117648;1211;22843;-58
2021/04/09 06:02:40;;;;;;;24.95;16.75;;;;;;;3.20;70.48;100356.24;117745;1204;23522;-58
2021/04/09 06:05:12;;;;;;;32.45;17.65;;;;;;;3.27;70.14;100361.72;117636;1206;22986;-62
2021/04/09 06:07:40;;;;;;;25.37;17.17;;;;;;;3.36;70.23;100364.09;117731;1206;23753;-64
2021/04/09 06:10:08;;;;;;;26.20;17.40;;;;;;;3.42;70.21;100370.59;117750;1206;23502;-63
2021/04/09 06:12:40;;;;;;;38.20;23.15;;;;;;;3.50;69.82;100367.77;117724;1206;22957;-64
2021/04/09 06:15:11;;;;;;;43.45;27.50;;;;;;;3.59;70.09;100366.63;117693;1206;23088;-64
2021/04/09 06:17:39;;;;;;;27.25;17.50;;;;;;;3.70;70.05;100368.80;117776;1206;22916;-64
2021/04/09 06:20:07;;;;;;;27.90;16.30;;;;;;;3.75;69.79;100371.73;117758;1206;22856;-64
2021/04/09 06:22:35;;;;;;;24.10;16.65;;;;;;;3.81;69.61;100368.28;117761;1211;22899;-64
2021/04/09 06:25:07;;;;;;;26.30;17.75;;;;;;;3.93;69.93;100375.84;117705;1206;23306;-64
2021/04/09 06:27:34;;;;;;;27.50;16.20;;;;;;;4.00;69.26;100366.80;117699;1205;22928;-64
2021/04/09 06:30:03;;;;;;;24.35;14.80;;;;;;;4.06;68.89;100374.09;117671;1206;22965;-64
2021/04/09 06:32:31;;;;;;;21.90;15.43;;;;;;;4.03;68.65;100365.58;117749;1206;23673;-64
2021/04/09 06:34:58;;;;;;;23.70;15.40;;;;;;;4.11;68.50;100379.74;117720;1206;23781;-64
2021/04/09 06:37:26;;;;;;;25.95;16.80;;;;;;;4.15;68.70;100382.89;117785;1206;22993;-64
2021/04/09 06:39:54;;;;;;;23.50;16.10;;;;;;;4.24;68.84;100387.94;117678;1206;22968;-64
2021/04/09 06:42:21;;;;;;;24.53;17.47;;;;;;;4.31;68.61;100379.91;117731;1209;22906;-64
2021/04/09 06:44:49;;;;;;;26.87;17.40;;;;;;;4.38;68.70;100383.47;117705;1211;22930;-64
2021/04/09 06:47:17;;;;;;;28.70;18.10;;;;;;;4.43;68.30;100386.42;117761;1206;22993;-64
2021/04/09 06:49:45;;;;;;;26.85;17.75;;;;;;;4.50;68.54;100384.59;117723;1206;22906;-64
2021/04/09 06:52:14;;;;;;;27.75;18.50;;;;;;;4.57;68.11;100390.88;117704;1206;23796;-64
2021/04/09 06:54:42;;;;;;;23.75;16.10;;;;;;;4.59;67.80;100388.81;117570;1210;23255;-64
2021/04/09 06:57:11;;;;;;;30.07;17.60;;;;;;;4.65;68.07;100391.73;117728;1212;22922;-64
2021/04/09 06:59:42;;;;;;;31.10;18.50;;;;;;;4.71;67.74;100396.36;117801;1206;22823;-64
2021/04/09 07:02:15;;;;;;;26.80;17.20;;;;;;;4.78;67.52;100394.52;117822;1206;22886;-64
2021/04/09 07:04:45;;;;;;;29.37;17.10;;;;;;;4.85;67.70;100390.00;117681;1206;22903;-64
2021/04/09 07:07:16;;;;;;;23.73;17.50;;;;;;;4.95;67.40;100393.98;117732;1206;22987;-58
2021/04/09 07:09:45;;;;;;;24.35;16.60;;;;;;;5.02;66.72;100385.94;117721;1206;22827;-58
2021/04/09 07:13:31;;;;;;;29.10;17.00;;;;;;;5.13;66.66;100393.45;113397;1205;23194;-58
2021/04/09 07:16:07;;;;;;;25.05;17.85;;;;;;;5.20;66.37;100394.30;117216;1208;23111;-59
2021/04/09 07:18:55;;;;;;;26.95;17.35;;;;;;;5.29;66.04;100403.92;117398;1208;22800;-59
2021/04/09 07:21:27;;;;;;;24.35;16.25;;;;;;;5.40;65.97;100396.25;117362;1212;23020;-60
2021/04/09 07:24:13;;;;;;;25.97;17.53;;;;;;;5.48;66.29;100396.89;117374;1209;22928;-60
2021/04/09 07:26:45;;;;;;;21.10;14.65;;;;;;;5.53;64.94;100388.19;117320;1209;23524;-59
2021/04/09 07:29:31;;;;;;;42.45;22.80;;;;;;;5.67;64.06;100397.98;117400;1209;23673;-59
2021/04/09 07:31:59;;;;;;;23.55;14.85;;;;;;;5.73;63.42;100397.19;117385;1208;22979;-60
2021/04/09 07:34:30;;;;;;;16.20;10.15;;;;;;;5.79;61.94;100398.22;117274;1209;23001;-59
2021/04/09 07:36:58;;;;;;;14.25;9.85;;;;;;;5.82;61.90;100401.34;117184;1209;22920;-64
2021/04/09 07:39:32;;;;;;;20.43;13.47;;;;;;;5.89;62.42;100399.53;117355;1208;22922;-64
2021/04/09 07:42:19;;;;;;;18.50;12.55;;;;;;;6.00;62.17;100404.33;117224;1209;22836;-65
2021/04/09 07:44:55;;;;;;;13.40;7.95;;;;;;;6.10;60.64;100403.08;117169;1210;22954;-64
2021/04/09 07:47:26;;;;;;;12.90;9.53;;;;;;;6.19;59.72;100412.67;117137;1215;22880;-64
2021/04/09 07:50:10;;;;;;;19.10;10.60;;;;;;;6.22;59.49;100406.82;117041;1211;23054;-65
2021/04/09 07:52:42;;;;;;;18.95;12.85;;;;;;;6.26;59.68;100408.91;117129;1210;25598;-65
2021/04/09 07:55:20;;;;;;;19.60;13.00;;;;;;;6.29;58.37;100408.50;117219;1212;23907;-65
2021/04/09 07:57:49;;;;;;;16.95;10.15;;;;;;;6.33;57.91;100415.17;117163;1212;24059;-65
2021/04/09 08:00:21;;;;;;;16.60;10.35;;;;;;;6.37;57.11;100408.28;117196;1211;22817;-65
2021/04/09 08:02:50;;;;;;;17.00;10.70;;;;;;;6.35;55.98;100409.52;117178;1214;22946;-67
2021/04/09 08:05:23;;;;;;;16.30;11.60;;;;;;;6.30;55.47;100407.47;117192;1215;22900;-67
2021/04/09 08:07:51;;;;;;;29.40;20.00;;;;;;;6.29;56.38;100413.08;117253;1215;22973;-67
2021/04/09 08:10:31;;;;;;;20.10;13.80;;;;;;;6.35;56.39;100406.81;117157;1210;22880;-67
2021/04/09 08:13:01;;;;;;;17.70;11.25;;;;;;;6.39;57.16;100406.20;117227;1212;22855;-67
2021/04/09 08:15:43;;;;;;;15.80;10.35;;;;;;;6.49;57.22;100403.09;116218;1212;26066;-66
2021/04/09 08:18:11;;;;;;;12.43;8.37;;;;;;;6.58;55.78;100407.23;117175;1208;22956;-67
2021/04/09 08:20:41;;;;;;;14.70;9.55;;;;;;;6.65;54.17;100397.20;117261;1208;22929;-66
2021/04/09 08:23:13;;;;;;;14.77;9.17;;;;;;;6.72;54.00;100402.63;117321;1209;22870;-67
2021/04/09 08:25:41;;;;;;;11.03;8.10;;;;;;;6.79;51.80;100406.14;117340;1209;24520;-67
2021/04/09 08:28:11;;;;;;;13.65;8.40;;;;;;;6.83;53.10;100407.39;117363;1209;22820;-67
2021/04/09 08:30:38;;;;;;;12.40;8.30;;;;;;;6.87;52.34;100402.38;117203;1209;22895;-67
2021/04/09 08:33:24;;;;;;;10.55;7.15;;;;;;;6.90;51.46;100402.80;117236;1209;22956;-67
2021/04/09 08:35:52;;;;;;;16.30;10.00;;;;;;;6.94;52.23;100403.19;117198;1208;22854;-67
2021/04/09 08:38:19;;;;;;;12.50;8.50;;;;;;;7.01;53.13;100395.89;117294;1209;22954;-66
2021/04/09 08:40:47;;;;;;;15.70;9.55;;;;;;;7.12;52.51;100397.92;117197;1209;22832;-65
2021/04/09 08:43:14;;;;;;;11.60;8.35;;;;;;;7.23;52.18;100399.95;117198;1212;22933;-65
2021/04/09 08:45:42;;;;;;;18.90;8.95;;;;;;;7.31;52.35;100397.02;117287;1208;22949;-65
2021/04/09 08:48:17;;;;;;;20.00;13.70;;;;;;;7.39;51.74;100404.89;117251;1208;22839;-65
2021/04/09 08:50:45;;;;;;;9.95;7.00;;;;;;;7.44;51.52;100394.25;117205;1209;22897;-65
2021/04/09 08:53:25;;;;;;;9.80;5.63;;;;;;;7.50;50.49;100406.12;117203;1212;22878;-65
2021/04/09 08:55:53;;;;;;;10.20;5.40;;;;;;;7.58;49.80;100407.73;117282;1208;22945;-65
2021/04/09 08:58:21;;;;;;;7.93;5.57;;;;;;;7.55;49.60;100390.02;117272;1209;23474;-65
2021/04/09 09:00:50;;;;;;;11.60;5.33;;;;;;;7.67;48.32;100400.99;117296;1209;22829;-65
2021/04/09 09:03:26;;;;;;;9.10;5.60;;;;;;;7.71;46.28;100404.95;117383;1208;22856;-65
2021/04/09 09:06:02;;;;;;;9.35;6.23;;;;;;;7.66;46.46;100402.05;117312;1208;22851;-65
2021/04/09 09:08:42;;;;;;;12.10;6.95;;;;;;;7.63;48.67;100407.92;117297;1209;22835;-65
2021/04/09 09:11:10;;;;;;;12.10;7.80;;;;;;;7.62;49.55;100411.69;117251;1209;23546;-65
2021/04/09 09:13:42;;;;;;;10.65;7.05;;;;;;;7.66;50.59;100412.89;117382;1209;23041;-65
2021/04/09 09:16:21;;;;;;;7.55;5.85;;;;;;;7.72;48.83;100406.61;117178;1208;23930;-65
2021/04/09 09:18:55;;;;;;;12.50;6.30;;;;;;;7.78;48.80;100403.88;117302;1209;22898;-64
2021/04/09 09:21:27;;;;;;;16.00;7.30;;;;;;;7.88;49.53;100413.41;117232;1208;22923;-65
2021/04/09 09:23:57;;;;;;;9.75;5.10;;;;;;;7.97;47.91;100414.80;117231;1212;23427;-64
2021/04/09 09:26:35;;;;;;;6.95;4.95;;;;;;;8.06;46.98;100416.20;117325;1209;23295;-66
2021/04/09 09:29:21;;;;;;;6.65;5.25;;;;;;;8.09;46.32;100419.30;117256;1209;22800;-66
2021/04/09 09:32:01;;;;;;;7.75;5.05;;;;;;;8.14;46.93;100422.19;117280;1208;23487;-66
2021/04/09 09:34:31;;;;;;;13.73;4.88;;;;;;;8.19;46.91;100410.68;117335;1209;22846;-66
2021/04/09 09:37:15;;;;;;;7.25;4.20;;;;;;;8.23;46.20;100411.88;116183;1210;23333;-64
2021/04/09 09:39:54;;;;;;;7.45;4.00;;;;;;;8.28;42.75;100416.66;117203;1212;22842;-66
2021/04/09 09:42:22;;;;;;;5.05;3.35;;;;;;;8.28;41.50;100424.80;117284;1209;22982;-66
2021/04/09 09:44:50;;;;;;;5.20;3.50;;;;;;;8.23;41.97;100416.47;117334;1209;22854;-65
2021/04/09 09:47:21;;;;;;;10.25;6.35;;;;;;;8.19;42.43;100409.84;113949;1209;25029;-65
2021/04/09 09:50:12;;;;;;;7.70;4.30;;;;;;;8.20;42.28;100416.94;117404;1208;22834;-66
2021/04/09 09:52:58;;;;;;;6.65;4.45;;;;;;;8.16;41.83;100417.38;117342;1209;22904;-64
2021/04/09 09:55:37;;;;;;;5.93;3.97;;;;;;;8.15;42.40;100421.14;117332;1209;22906;-67
2021/04/09 09:58:26;;;;;;;6.90;3.75;;;;;;;8.13;41.64;100416.98;117400;1209;22887;-67
2021/04/09 10:00:54;;;;;;;6.00;4.30;;;;;;;8.10;42.38;100423.67;117163;1209;23755;-67
2021/04/09 10:03:28;;;;;;;6.70;4.40;;;;;;;8.12;42.88;100418.03;117278;1212;22831;-67
2021/04/09 10:06:00;;;;;;;6.85;4.00;;;;;;;7.99;42.81;100396.41;117334;1208;23666;-67
2021/04/09 10:08:29;;;;;;;8.45;5.15;;;;;;;8.19;43.38;100416.11;117366;1209;22846;-66
2021/04/09 10:11:02;;;;;;;8.20;4.85;;;;;;;8.26;43.75;100416.04;117354;1208;22926;-66
2021/04/09 10:13:41;;;;;;;7.40;3.85;;;;;;;8.31;43.22;100411.63;117286;1212;22973;-66
2021/04/09 10:16:20;;;;;;;6.60;4.60;;;;;;;8.40;43.92;100412.20;117306;1209;22927;-66
2021/04/09 10:18:52;;;;;;;7.70;5.10;;;;;;;8.49;43.60;100414.43;117234;1209;22923;-65
2021/04/09 10:21:30;;;;;;;5.95;4.50;;;;;;;8.50;44.37;100390.81;117318;1208;23718;-66
2021/04/09 10:24:12;;;;;;;5.20;4.17;;;;;;;8.69;44.57;100402.52;117251;1209;23530;-65
2021/04/09 10:26:43;;;;;;;6.20;5.00;;;;;;;8.84;43.63;100398.40;114836;1209;23208;-58
2021/04/09 10:29:18;;;;;;;7.97;4.20;;;;;;;8.99;43.07;100410.78;117210;1212;22838;-60
2021/04/09 10:31:46;;;;;;;7.15;4.20;;;;;;;9.11;42.53;100408.97;117296;1209;23067;-60
2021/04/09 10:34:19;;;;;;;9.50;3.95;;;;;;;9.20;41.77;100402.20;117373;1208;23468;-60
2021/04/09 10:36:46;;;;;;;5.90;3.85;;;;;;;9.25;40.92;100409.64;117313;1209;22890;-60
2021/04/09 10:39:19;;;;;;;7.75;4.30;;;;;;;9.24;39.69;100408.81;117346;1212;22983;-61
2021/04/09 10:41:50;;;;;;;8.03;4.63;;;;;;;9.14;39.72;100405.80;117278;1208;23501;-61
2021/04/09 10:44:25;;;;;;;14.03;8.60;;;;;;;9.00;40.17;100404.30;117298;1209;22917;-60
2021/04/09 10:47:05;;;;;;;15.15;8.55;;;;;;;8.89;40.54;100405.88;117306;1209;22885;-61
2021/04/09 10:49:34;;;;;;;12.30;7.10;;;;;;;8.84;41.37;100406.55;117293;1208;22846;-60
2021/04/09 10:52:09;;;;;;;6.10;4.30;;;;;;;8.80;40.83;100401.81;117304;1209;24054;-61
2021/04/09 10:54:39;;;;;;;8.50;5.20;;;;;;;8.76;40.23;100404.14;117432;1208;23040;-60
2021/04/09 10:57:13;;;;;;;7.75;5.15;;;;;;;8.70;40.05;100402.31;117246;1209;23641;-66
2021/04/09 10:59:45;;;;;;;8.30;5.20;;;;;;;8.64;39.89;100400.50;117342;1209;22916;-66
2021/04/09 11:02:25;;;;;;;10.75;5.30;;;;;;;8.60;40.42;100393.84;117207;1209;22822;-66
2021/04/09 11:05:03;;;;;;;7.20;4.30;;;;;;;8.64;39.55;100402.39;117212;1209;23572;-65
2021/04/09 11:07:42;;;;;;;10.10;4.90;;;;;;;8.64;39.66;100402.39;117251;1212;22840;-65
2021/04/09 11:10:35;;;;;;;6.90;4.55;;;;;;;8.60;38.50;100399.28;117292;1209;22915;-65
2021/04/09 11:13:04;;;;;;;5.95;4.45;;;;;;;8.52;39.16;100399.55;117245;1209;23877;-65
2021/04/09 11:15:39;;;;;;;8.80;4.87;;;;;;;8.48;39.38;100395.64;117334;1209;22870;-65
2021/04/09 11:18:06;;;;;;;8.55;4.90;;;;;;;8.45;40.20;100396.08;117355;1208;22831;-65
2021/04/09 11:20:36;;;;;;;5.70;3.95;;;;;;;8.45;40.09;100398.80;117215;1208;22852;-65
2021/04/09 11:23:09;;;;;;;24.25;15.80;;;;;;;8.43;40.86;100398.18;117196;1209;22990;-65
2021/04/09 11:25:40;;;;;;;13.70;9.05;;;;;;;8.44;41.35;100399.84;117376;1209;22848;-61
2021/04/09 11:28:24;;;;;;;9.00;6.30;;;;;;;8.47;42.00;100393.97;117344;1209;22987;-60
2021/04/09 11:31:05;;;;;;;7.50;5.40;;;;;;;8.50;42.30;100391.66;117230;1208;23004;-60
2021/04/09 11:33:36;;;;;;;11.90;7.30;;;;;;;8.56;42.04;100398.05;117168;1212;23068;-60